sensor_id;sensor_type;location;lat;lon;timestamp;pressure;altitude;pressure_sealevel;temperature;humidity
59513;BME280;45330;51.634;5.562;2024-01-06T00:01:19;100282.56;;;5.38;100.00
59513;BME280;45330;51.634;5.562;2024-01-06T00:03:44;100280.84;;;5.35;100.00
59513;BME280;45330;51.634;5.562;2024-01-06T00:06:13;100258.34;;;5.12;100.00
59513;BME280;45330;51.634;5.562;2024-01-06T00:08:39;100270.34;;;5.09;100.00
59513;BME280;45330;51.634;5.562;2024-01-06T00:11:04;100288.44;;;5.12;100.00
59513;BME280;45330;51.634;5.562;2024-01-06T00:13:30;100287.53;;;5.10;100.00
59513;BME280;45330;51.634;5.562;2024-01-06T00:15:55;100297.84;;;5.08;100.00
59513;BME280;45330;51.634;5.562;2024-01-06T00:18:20;100293.50;;;5.03;100.00
59513;BME280;45330;51.634;5.562;2024-01-06T00:20:46;100275.34;;;4.89;100.00
59513;BME280;45330;51.634;5.562;2024-01-06T00:23:11;100297.75;;;4.96;100.00
59513;BME280;45330;51.634;5.562;2024-01-06T00:25:36;100304.63;;;4.95;100.00
59513;BME280;45330;51.634;5.562;2024-01-06T00:28:02;100306.31;;;4.95;100.00
59513;BME280;45330;51.634;5.562;2024-01-06T00:30:27;100311.44;;;4.89;100.00
59513;BME280;45330;51.634;5.562;2024-01-06T00:32:52;100311.44;;;4.89;100.00
59513;BME280;45330;51.634;5.562;2024-01-06T00:35:18;100307.13;;;4.86;100.00
59513;BME280;45330;51.634;5.562;2024-01-06T00:37:43;100297.63;;;4.82;100.00
59513;BME280;45330;51.634;5.562;2024-01-06T00:40:09;100316.56;;;4.81;100.00
59513;BME280;45330;51.634;5.562;2024-01-06T00:42:34;100293.16;;;4.62;100.00
59513;BME280;45330;51.634;5.562;2024-01-06T00:45:00;100296.66;;;4.68;100.00
59513;BME280;45330;51.634;5.562;2024-01-06T00:47:25;100314.81;;;4.78;100.00
59513;BME280;45330;51.634;5.562;2024-01-06T00:49:50;100313.91;;;4.76;100.00
59513;BME280;45330;51.634;5.562;2024-01-06T00:52:16;100311.34;;;4.78;100.00
59513;BME280;45330;51.634;5.562;2024-01-06T00:54:41;100301.81;;;4.68;100.00
59513;BME280;45330;51.634;5.562;2024-01-06T00:57:07;100311.31;;;4.72;100.00
59513;BME280;45330;51.634;5.562;2024-01-06T00:59:32;100318.22;;;4.76;100.00
59513;BME280;45330;51.634;5.562;2024-01-06T01:01:58;100310.38;;;4.67;100.00
59513;BME280;45330;51.634;5.562;2024-01-06T01:04:23;100332.84;;;4.77;100.00
59513;BME280;45330;51.634;5.562;2024-01-06T01:06:48;100334.50;;;4.75;100.00
59513;BME280;45330;51.634;5.562;2024-01-06T01:09:14;100312.91;;;4.60;100.00
59513;BME280;45330;51.634;5.562;2024-01-06T01:11:40;100335.34;;;4.71;100.00
59513;BME280;45330;51.634;5.562;2024-01-06T01:14:05;100333.56;;;4.67;100.00
59513;BME280;45330;51.634;5.562;2024-01-06T01:16:30;100324.03;;;4.58;100.00
59513;BME280;45330;51.634;5.562;2024-01-06T01:18:57;100311.94;;;4.49;100.00
59513;BME280;45330;51.634;5.562;2024-01-06T01:21:23;100331.78;;;4.58;100.00
59513;BME280;45330;51.634;5.562;2024-01-06T01:23:48;100328.28;;;4.53;100.00
59513;BME280;45330;51.634;5.562;2024-01-06T01:26:14;100324.00;;;4.52;100.00
59513;BME280;45330;51.634;5.562;2024-01-06T01:28:39;100351.59;;;4.63;100.00
59513;BME280;45330;51.634;5.562;2024-01-06T01:31:04;100350.75;;;4.63;100.00
59513;BME280;45330;51.634;5.562;2024-01-06T01:33:30;100341.19;;;4.54;100.00
59513;BME280;45330;51.634;5.562;2024-01-06T01:35:55;100356.69;;;4.57;100.00
59513;BME280;45330;51.634;5.562;2024-01-06T01:38:20;100368.72;;;4.58;100.00
59513;BME280;45330;51.634;5.562;2024-01-06T01:40:46;100366.19;;;4.63;100.00
59513;BME280;45330;51.634;5.562;2024-01-06T01:43:18;100369.66;;;4.65;100.00
59513;BME280;45330;51.634;5.562;2024-01-06T01:45:43;100373.94;;;4.64;100.00
59513;BME280;45330;51.634;5.562;2024-01-06T01:48:10;100377.41;;;4.68;100.00
59513;BME280;45330;51.634;5.562;2024-01-06T01:50:35;100379.13;;;4.68;100.00
59513;BME280;45330;51.634;5.562;2024-01-06T01:53:00;100380.88;;;4.69;100.00
59513;BME280;45330;51.634;5.562;2024-01-06T01:55:26;100389.44;;;4.69;100.00
59513;BME280;45330;51.634;5.562;2024-01-06T01:57:52;100391.16;;;4.69;100.00
59513;BME280;45330;51.634;5.562;2024-01-06T02:00:17;100384.16;;;4.57;100.00
59513;BME280;45330;51.634;5.562;2024-01-06T02:02:43;100404.88;;;4.64;100.00
59513;BME280;45330;51.634;5.562;2024-01-06T02:05:09;100384.06;;;4.47;100.00
59513;BME280;45330;51.634;5.562;2024-01-06T02:07:34;100402.13;;;4.51;100.00
59513;BME280;45330;51.634;5.562;2024-01-06T02:10:00;100414.97;;;4.46;100.00
59513;BME280;45330;51.634;5.562;2024-01-06T02:12:25;100393.22;;;4.24;100.00
59513;BME280;45330;51.634;5.562;2024-01-06T02:14:50;100403.56;;;4.25;100.00
59513;BME280;45330;51.634;5.562;2024-01-06T02:17:16;100400.03;;;4.20;100.00
59513;BME280;45330;51.634;5.562;2024-01-06T02:19:41;100400.94;;;4.21;100.00
59513;BME280;45330;51.634;5.562;2024-01-06T02:22:06;100423.38;;;4.31;100.00
59513;BME280;45330;51.634;5.562;2024-01-06T02:24:32;100397.34;;;4.09;100.00
59513;BME280;45330;51.634;5.562;2024-01-06T02:26:57;100421.53;;;4.22;100.00
59513;BME280;45330;51.634;5.562;2024-01-06T02:29:23;100433.59;;;4.23;100.00
59513;BME280;45330;51.634;5.562;2024-01-06T02:31:48;100437.91;;;4.27;100.00
59513;BME280;45330;51.634;5.562;2024-01-06T02:34:13;100421.34;;;4.07;100.00
59513;BME280;45330;51.634;5.562;2024-01-06T02:36:39;100440.34;;;4.15;100.00
59513;BME280;45330;51.634;5.562;2024-01-06T02:39:04;100452.31;;;4.13;100.00
59513;BME280;45330;51.634;5.562;2024-01-06T02:41:29;100442.75;;;4.04;100.00
59513;BME280;45330;51.634;5.562;2024-01-06T02:43:55;100445.34;;;4.06;100.00
59513;BME280;45330;51.634;5.562;2024-01-06T02:46:21;100447.88;;;4.03;100.00
59513;BME280;45330;51.634;5.562;2024-01-06T02:48:46;100458.28;;;4.10;100.00
59513;BME280;45330;51.634;5.562;2024-01-06T02:51:12;100464.28;;;4.08;100.00
59513;BME280;45330;51.634;5.562;2024-01-06T02:53:40;100466.81;;;4.06;100.00
59513;BME280;45330;51.634;5.562;2024-01-06T02:56:10;100452.06;;;3.94;100.00
59513;BME280;45330;51.634;5.562;2024-01-06T02:58:35;100446.88;;;3.91;100.00
59513;BME280;45330;51.634;5.562;2024-01-06T03:01:00;100477.97;;;4.05;100.00
59513;BME280;45330;51.634;5.562;2024-01-06T03:03:26;100478.84;;;4.07;100.00
59513;BME280;45330;51.634;5.562;2024-01-06T03:05:51;100473.63;;;4.01;100.00
59513;BME280;45330;51.634;5.562;2024-01-06T03:08:16;100478.75;;;4.01;100.00
59513;BME280;45330;51.634;5.562;2024-01-06T03:10:43;100469.97;;;3.87;100.00
59513;BME280;45330;51.634;5.562;2024-01-06T03:13:08;100495.84;;;3.98;100.00
59513;BME280;45330;51.634;5.562;2024-01-06T03:15:33;100479.34;;;3.83;100.00
59513;BME280;45330;51.634;5.562;2024-01-06T03:17:59;100494.88;;;3.89;100.00
59513;BME280;45330;51.634;5.562;2024-01-06T03:20:24;100507.84;;;3.94;100.00
59513;BME280;45330;51.634;5.562;2024-01-06T03:22:49;100501.72;;;3.87;100.00
59513;BME280;45330;51.634;5.562;2024-01-06T03:25:15;100498.19;;;3.82;100.00
59513;BME280;45330;51.634;5.562;2024-01-06T03:27:40;100512.06;;;3.92;100.00
59513;BME280;45330;51.634;5.562;2024-01-06T03:30:06;100488.66;;;3.76;100.00
59513;BME280;45330;51.634;5.562;2024-01-06T03:32:31;100491.25;;;3.76;100.00
59513;BME280;45330;51.634;5.562;2024-01-06T03:34:57;100498.16;;;3.81;100.00
59513;BME280;45330;51.634;5.562;2024-01-06T03:37:22;100514.59;;;3.87;100.00
59513;BME280;45330;51.634;5.562;2024-01-06T03:39:47;100515.38;;;3.83;100.00
59513;BME280;45330;51.634;5.562;2024-01-06T03:42:13;100527.44;;;3.87;100.00
59513;BME280;45330;51.634;5.562;2024-01-06T03:44:38;100527.44;;;3.86;100.00
59513;BME280;45330;51.634;5.562;2024-01-06T03:47:04;100510.09;;;3.75;100.00
59513;BME280;45330;51.634;5.562;2024-01-06T03:49:29;100526.50;;;3.82;100.00
59513;BME280;45330;51.634;5.562;2024-01-06T03:51:54;100515.09;;;3.66;100.00
59513;BME280;45330;51.634;5.562;2024-01-06T03:54:20;100535.03;;;3.80;100.00
59513;BME280;45330;51.634;5.562;2024-01-06T03:56:45;100539.28;;;3.76;100.00
59513;BME280;45330;51.634;5.562;2024-01-06T03:59:11;100530.59;;;3.71;100.00
59513;BME280;45330;51.634;5.562;2024-01-06T04:01:36;100540.84;;;3.68;100.00
59513;BME280;45330;51.634;5.562;2024-01-06T04:04:02;100547.69;;;3.66;100.00
59513;BME280;45330;51.634;5.562;2024-01-06T04:06:28;100544.13;;;3.57;100.00
59513;BME280;45330;51.634;5.562;2024-01-06T04:08:53;100551.00;;;3.60;100.00
59513;BME280;45330;51.634;5.562;2024-01-06T04:11:20;100564.69;;;3.57;100.00
59513;BME280;45330;51.634;5.562;2024-01-06T04:13:45;100550.81;;;3.49;100.00
59513;BME280;45330;51.634;5.562;2024-01-06T04:16:11;100561.25;;;3.57;100.00
59513;BME280;45330;51.634;5.562;2024-01-06T04:18:36;100533.56;;;3.42;100.00
59513;BME280;45330;51.634;5.562;2024-01-06T04:21:02;100546.59;;;3.53;100.00
59513;BME280;45330;51.634;5.562;2024-01-06T04:23:27;100531.78;;;3.39;100.00
59513;BME280;45330;51.634;5.562;2024-01-06T04:25:53;100536.13;;;3.42;100.00
59513;BME280;45330;51.634;5.562;2024-01-06T04:28:18;100527.44;;;3.37;100.00
59513;BME280;45330;51.634;5.562;2024-01-06T04:30:43;100568.13;;;3.58;100.00
59513;BME280;45330;51.634;5.562;2024-01-06T04:33:09;100538.69;;;3.42;100.00
59513;BME280;45330;51.634;5.562;2024-01-06T04:35:34;100546.44;;;3.43;100.00
59513;BME280;45330;51.634;5.562;2024-01-06T04:37:59;100527.41;;;3.34;100.00
59513;BME280;45330;51.634;5.562;2024-01-06T04:40:25;100542.06;;;3.38;100.00
59513;BME280;45330;51.634;5.562;2024-01-06T04:42:50;100559.41;;;3.50;100.00
59513;BME280;45330;51.634;5.562;2024-01-06T04:45:15;100580.16;;;3.59;100.00
59513;BME280;45330;51.634;5.562;2024-01-06T04:47:41;100581.06;;;3.63;100.00
59513;BME280;45330;51.634;5.562;2024-01-06T04:50:07;100564.56;;;3.51;100.00
59513;BME280;45330;51.634;5.562;2024-01-06T04:52:32;100583.63;;;3.63;100.00
59513;BME280;45330;51.634;5.562;2024-01-06T04:54:57;100566.25;;;3.48;100.00
59513;BME280;45330;51.634;5.562;2024-01-06T04:57:23;100572.22;;;3.47;100.00
59513;BME280;45330;51.634;5.562;2024-01-06T04:59:48;100567.00;;;3.43;100.00
59513;BME280;45330;51.634;5.562;2024-01-06T05:02:13;100573.00;;;3.42;100.00
59513;BME280;45330;51.634;5.562;2024-01-06T05:04:39;100592.75;;;3.45;100.00
59513;BME280;45330;51.634;5.562;2024-01-06T05:07:04;100600.59;;;3.53;100.00
59513;BME280;45330;51.634;5.562;2024-01-06T05:09:30;100607.56;;;3.58;100.00
59513;BME280;45330;51.634;5.562;2024-01-06T05:11:55;100586.72;;;3.43;100.00
59513;BME280;45330;51.634;5.562;2024-01-06T05:14:20;100598.75;;;3.44;100.00
59513;BME280;45330;51.634;5.562;2024-01-06T05:16:46;100593.56;;;3.42;100.00
59513;BME280;45330;51.634;5.562;2024-01-06T05:19:11;100622.13;;;3.56;100.00
59513;BME280;45330;51.634;5.562;2024-01-06T05:21:37;100597.84;;;3.42;100.00
59513;BME280;45330;51.634;5.562;2024-01-06T05:24:02;100606.44;;;3.42;100.00
59513;BME280;45330;51.634;5.562;2024-01-06T05:26:28;100611.56;;;3.42;100.00
59513;BME280;45330;51.634;5.562;2024-01-06T05:28:53;100614.13;;;3.41;100.00
59513;BME280;45330;51.634;5.562;2024-01-06T05:31:19;100621.97;;;3.49;100.00
59513;BME280;45330;51.634;5.562;2024-01-06T05:33:44;100634.06;;;3.53;100.00
59513;BME280;45330;51.634;5.562;2024-01-06T05:36:09;100606.31;;;3.36;100.00
59513;BME280;45330;51.634;5.562;2024-01-06T05:38:38;100638.25;;;3.46;100.00
59513;BME280;45330;51.634;5.562;2024-01-06T05:41:03;100643.44;;;3.49;100.00
59513;BME280;45330;51.634;5.562;2024-01-06T05:43:29;100632.94;;;3.38;100.00
59513;BME280;45330;51.634;5.562;2024-01-06T05:45:54;100657.13;;;3.48;100.00
59513;BME280;45330;51.634;5.562;2024-01-06T05:48:19;100654.56;;;3.48;100.00
59513;BME280;45330;51.634;5.562;2024-01-06T05:50:45;100651.09;;;3.46;100.00
59513;BME280;45330;51.634;5.562;2024-01-06T05:53:11;100654.50;;;3.45;100.00
59513;BME280;45330;51.634;5.562;2024-01-06T05:55:36;100645.75;;;3.37;100.00
59513;BME280;45330;51.634;5.562;2024-01-06T05:58:02;100656.09;;;3.40;100.00
59513;BME280;45330;51.634;5.562;2024-01-06T06:00:27;100664.72;;;3.42;100.00
59513;BME280;45330;51.634;5.562;2024-01-06T06:02:52;100663.03;;;3.42;100.00
59513;BME280;45330;51.634;5.562;2024-01-06T06:05:18;100674.91;;;3.37;100.00
59513;BME280;45330;51.634;5.562;2024-01-06T06:07:43;100680.06;;;3.37;100.00
59513;BME280;45330;51.634;5.562;2024-01-06T06:10:10;100677.44;;;3.36;100.00
59513;BME280;45330;51.634;5.562;2024-01-06T06:12:36;100679.16;;;3.35;100.00
59513;BME280;45330;51.634;5.562;2024-01-06T06:15:04;100682.53;;;3.33;100.00
59513;BME280;45330;51.634;5.562;2024-01-06T06:17:35;100685.03;;;3.28;100.00
59513;BME280;45330;51.634;5.562;2024-01-06T06:20:00;100693.63;;;3.30;100.00
59513;BME280;45330;51.634;5.562;2024-01-06T06:22:26;100689.22;;;3.24;100.00
59513;BME280;45330;51.634;5.562;2024-01-06T06:24:55;100699.56;;;3.28;100.00
59513;BME280;45330;51.634;5.562;2024-01-06T06:27:21;100704.69;;;3.26;100.00
59513;BME280;45330;51.634;5.562;2024-01-06T06:29:46;100709.03;;;3.29;100.00
59513;BME280;45330;51.634;5.562;2024-01-06T06:32:12;100710.75;;;3.28;100.00
59513;BME280;45330;51.634;5.562;2024-01-06T06:34:37;100695.03;;;3.16;100.00
59513;BME280;45330;51.634;5.562;2024-01-06T06:37:03;100684.53;;;3.06;100.00
59513;BME280;45330;51.634;5.562;2024-01-06T06:39:28;100724.41;;;3.27;100.00
59513;BME280;45330;51.634;5.562;2024-01-06T06:41:55;100720.13;;;3.28;100.00
59513;BME280;45330;51.634;5.562;2024-01-06T06:44:20;100723.47;;;3.23;100.00
59513;BME280;45330;51.634;5.562;2024-01-06T06:46:46;100713.03;;;3.16;100.00
59513;BME280;45330;51.634;5.562;2024-01-06T06:49:11;100743.19;;;3.23;100.00
59513;BME280;45330;51.634;5.562;2024-01-06T06:51:36;100712.03;;;3.09;100.00
59513;BME280;45330;51.634;5.562;2024-01-06T06:54:02;100720.38;;;2.99;100.00
59513;BME280;45330;51.634;5.562;2024-01-06T06:56:27;100733.16;;;2.96;100.00
59513;BME280;45330;51.634;5.562;2024-01-06T06:58:53;100759.06;;;3.05;100.00
59513;BME280;45330;51.634;5.562;2024-01-06T07:01:18;100773.66;;;3.06;100.00
59513;BME280;45330;51.634;5.562;2024-01-06T07:03:43;100776.16;;;3.03;100.00
59513;BME280;45330;51.634;5.562;2024-01-06T07:06:12;100785.47;;;2.98;100.00
59513;BME280;45330;51.634;5.562;2024-01-06T07:08:40;100767.25;;;2.88;100.00
59513;BME280;45330;51.634;5.562;2024-01-06T07:11:07;100782.69;;;2.88;100.00
59513;BME280;45330;51.634;5.562;2024-01-06T07:13:33;100805.19;;;2.99;100.00
59513;BME280;45330;51.634;5.562;2024-01-06T07:15:58;100794.81;;;2.94;100.00
59513;BME280;45330;51.634;5.562;2024-01-06T07:18:23;100782.50;;;2.82;100.00
59513;BME280;45330;51.634;5.562;2024-01-06T07:20:50;100775.50;;;2.75;100.00
59513;BME280;45330;51.634;5.562;2024-01-06T07:23:15;100781.50;;;2.75;100.00
59513;BME280;45330;51.634;5.562;2024-01-06T07:25:40;100800.53;;;2.84;100.00
59513;BME280;45330;51.634;5.562;2024-01-06T07:28:06;100788.31;;;2.73;100.00
59513;BME280;45330;51.634;5.562;2024-01-06T07:30:33;100794.16;;;2.68;100.00
59513;BME280;45330;51.634;5.562;2024-01-06T07:32:58;100814.06;;;2.77;100.00
59513;BME280;45330;51.634;5.562;2024-01-06T07:35:24;100799.38;;;2.71;100.00
59513;BME280;45330;51.634;5.562;2024-01-06T07:37:49;100809.75;;;2.75;100.00
59513;BME280;45330;51.634;5.562;2024-01-06T07:40:15;100794.00;;;2.62;100.00
59513;BME280;45330;51.634;5.562;2024-01-06T07:42:42;100817.38;;;2.72;100.00
59513;BME280;45330;51.634;5.562;2024-01-06T07:45:07;100811.22;;;2.66;100.00
59513;BME280;45330;51.634;5.562;2024-01-06T07:47:33;100830.28;;;2.74;100.00
59513;BME280;45330;51.634;5.562;2024-01-06T07:49:58;100830.28;;;2.74;100.00
59513;BME280;45330;51.634;5.562;2024-01-06T07:52:24;100838.03;;;2.75;100.00
59513;BME280;45330;51.634;5.562;2024-01-06T07:54:49;100829.16;;;2.64;100.00
59513;BME280;45330;51.634;5.562;2024-01-06T07:57:15;100853.38;;;2.72;100.00
59513;BME280;45330;51.634;5.562;2024-01-06T07:59:40;100823.72;;;2.52;100.00
59513;BME280;45330;51.634;5.562;2024-01-06T08:02:06;100842.69;;;2.57;100.00
59513;BME280;45330;51.634;5.562;2024-01-06T08:04:32;100852.97;;;2.57;100.00
59513;BME280;45330;51.634;5.562;2024-01-06T08:06:57;100831.28;;;2.47;100.00
59513;BME280;45330;51.634;5.562;2024-01-06T08:09:22;100864.13;;;2.57;100.00
59513;BME280;45330;51.634;5.562;2024-01-06T08:11:51;100848.38;;;2.45;100.00
59513;BME280;45330;51.634;5.562;2024-01-06T08:14:16;100851.84;;;2.47;100.00
59513;BME280;45330;51.634;5.562;2024-01-06T08:16:43;100854.44;;;2.49;100.00
59513;BME280;45330;51.634;5.562;2024-01-06T08:19:09;100877.88;;;2.60;100.00
59513;BME280;45330;51.634;5.562;2024-01-06T08:21:34;100882.16;;;2.59;100.00
59513;BME280;45330;51.634;5.562;2024-01-06T08:24:00;100873.31;;;2.49;100.00
59513;BME280;45330;51.634;5.562;2024-01-06T08:26:25;100874.19;;;2.50;100.00
59513;BME280;45330;51.634;5.562;2024-01-06T08:28:51;100896.84;;;2.65;100.00
59513;BME280;45330;51.634;5.562;2024-01-06T08:31:16;100903.72;;;2.66;100.00
59513;BME280;45330;51.634;5.562;2024-01-06T08:33:42;100906.38;;;2.69;100.00
59513;BME280;45330;51.634;5.562;2024-01-06T08:36:07;100907.22;;;2.68;100.00
59513;BME280;45330;51.634;5.562;2024-01-06T08:38:34;100894.94;;;2.57;100.00
59513;BME280;45330;51.634;5.562;2024-01-06T08:41:00;100914.06;;;2.67;100.00
59513;BME280;45330;51.634;5.562;2024-01-06T08:43:26;100906.16;;;2.61;100.00
59513;BME280;45330;51.634;5.562;2024-01-06T08:45:51;100910.22;;;2.53;100.00
59513;BME280;45330;51.634;5.562;2024-01-06T08:48:17;100915.56;;;2.61;100.00
59513;BME280;45330;51.634;5.562;2024-01-06T08:50:43;100923.28;;;2.61;100.00
59513;BME280;45330;51.634;5.562;2024-01-06T08:53:10;100940.59;;;2.68;100.00
59513;BME280;45330;51.634;5.562;2024-01-06T08:55:36;100917.97;;;2.54;100.00
59513;BME280;45330;51.634;5.562;2024-01-06T08:58:01;100943.19;;;2.68;100.00
59513;BME280;45330;51.634;5.562;2024-01-06T09:00:26;100930.09;;;2.60;100.00
59513;BME280;45330;51.634;5.562;2024-01-06T09:02:52;100936.22;;;2.64;100.00
59513;BME280;45330;51.634;5.562;2024-01-06T09:05:17;100942.31;;;2.67;100.00
59513;BME280;45330;51.634;5.562;2024-01-06T09:07:43;100950.06;;;2.69;100.00
59513;BME280;45330;51.634;5.562;2024-01-06T09:10:08;100954.38;;;2.71;100.00
59513;BME280;45330;51.634;5.562;2024-01-06T09:12:35;100926.59;;;2.56;100.00
59513;BME280;45330;51.634;5.562;2024-01-06T09:15:00;100962.38;;;2.81;100.00
59513;BME280;45330;51.634;5.562;2024-01-06T09:17:26;100932.59;;;2.57;100.00
59513;BME280;45330;51.634;5.562;2024-01-06T09:19:51;100962.28;;;2.78;100.00
59513;BME280;45330;51.634;5.562;2024-01-06T09:22:19;100966.69;;;2.82;100.00
59513;BME280;45330;51.634;5.562;2024-01-06T09:24:44;100967.78;;;2.90;100.00
59513;BME280;45330;51.634;5.562;2024-01-06T09:27:09;100976.88;;;2.79;100.00
59513;BME280;45330;51.634;5.562;2024-01-06T09:29:35;100978.59;;;2.80;100.00
59513;BME280;45330;51.634;5.562;2024-01-06T09:32:00;100986.34;;;2.81;100.00
59513;BME280;45330;51.634;5.562;2024-01-06T09:34:26;100973.22;;;2.70;100.00
59513;BME280;45330;51.634;5.562;2024-01-06T09:36:51;100999.03;;;2.75;100.00
59513;BME280;45330;51.634;5.562;2024-01-06T09:39:16;100993.09;;;2.76;100.00
59513;BME280;45330;51.634;5.562;2024-01-06T09:41:42;100975.56;;;2.63;100.00
59513;BME280;45330;51.634;5.562;2024-01-06T09:44:08;101004.19;;;2.75;100.00
59513;BME280;45330;51.634;5.562;2024-01-06T09:46:34;100992.91;;;2.70;100.00
59513;BME280;45330;51.634;5.562;2024-01-06T09:49:01;101022.28;;;2.80;100.00
59513;BME280;45330;51.634;5.562;2024-01-06T09:51:26;101008.31;;;2.70;100.00
59513;BME280;45330;51.634;5.562;2024-01-06T09:54:00;101019.00;;;2.84;100.00
59513;BME280;45330;51.634;5.562;2024-01-06T09:56:27;101033.47;;;2.80;100.00
59513;BME280;45330;51.634;5.562;2024-01-06T09:58:54;101032.63;;;2.81;100.00
59513;BME280;45330;51.634;5.562;2024-01-06T10:01:20;101014.38;;;2.72;100.00
59513;BME280;45330;51.634;5.562;2024-01-06T10:03:45;101036.06;;;2.82;100.00
59513;BME280;45330;51.634;5.562;2024-01-06T10:06:11;101027.31;;;2.75;100.00
59513;BME280;45330;51.634;5.562;2024-01-06T10:08:37;101017.72;;;2.69;100.00
59513;BME280;45330;51.634;5.562;2024-01-06T10:11:06;101044.03;;;2.91;100.00
59513;BME280;45330;51.634;5.562;2024-01-06T10:13:32;101044.03;;;2.91;100.00
59513;BME280;45330;51.634;5.562;2024-01-06T10:15:57;101030.25;;;2.87;100.00
59513;BME280;45330;51.634;5.562;2024-01-06T10:18:25;101046.75;;;2.96;100.00
59513;BME280;45330;51.634;5.562;2024-01-06T10:20:51;101053.69;;;2.98;100.00
59513;BME280;45330;51.634;5.562;2024-01-06T10:23:16;101056.28;;;3.00;100.00
59513;BME280;45330;51.634;5.562;2024-01-06T10:25:41;101067.53;;;3.03;100.00
59513;BME280;45330;51.634;5.562;2024-01-06T10:28:11;101042.13;;;2.84;100.00
59513;BME280;45330;51.634;5.562;2024-01-06T10:30:38;101074.09;;;2.94;100.00
59513;BME280;45330;51.634;5.562;2024-01-06T10:33:08;101065.28;;;2.85;100.00
59513;BME280;45330;51.634;5.562;2024-01-06T10:35:34;101057.34;;;2.76;100.00
59513;BME280;45330;51.634;5.562;2024-01-06T10:38:01;101031.38;;;2.68;100.00
59513;BME280;45330;51.634;5.562;2024-01-06T10:40:27;101049.63;;;2.76;100.00
59513;BME280;45330;51.634;5.562;2024-01-06T10:42:52;101052.22;;;2.78;100.00
59513;BME280;45330;51.634;5.562;2024-01-06T10:45:18;101074.25;;;2.98;100.00
59513;BME280;45330;51.634;5.562;2024-01-06T10:47:45;101081.16;;;3.01;100.00
59513;BME280;45330;51.634;5.562;2024-01-06T10:50:12;101057.78;;;2.91;100.00
59513;BME280;45330;51.634;5.562;2024-01-06T10:52:40;101083.72;;;3.01;100.00
59513;BME280;45330;51.634;5.562;2024-01-06T10:55:06;101050.88;;;2.90;100.00
59513;BME280;45330;51.634;5.562;2024-01-06T10:57:32;101053.50;;;2.92;100.00
59513;BME280;45330;51.634;5.562;2024-01-06T10:59:59;101063.81;;;2.94;100.00
59513;BME280;45330;51.634;5.562;2024-01-06T11:02:26;101066.44;;;2.95;100.00
59513;BME280;45330;51.634;5.562;2024-01-06T11:04:51;101081.31;;;3.05;100.00
59513;BME280;45330;51.634;5.562;2024-01-06T11:07:20;101074.00;;;2.90;100.00
59513;BME280;45330;51.634;5.562;2024-01-06T11:10:10;101068.00;;;2.90;100.00
59513;BME280;45330;51.634;5.562;2024-01-06T11:12:36;101089.59;;;2.97;100.00
59513;BME280;45330;51.634;5.562;2024-01-06T11:15:02;101099.19;;;3.02;100.00
59513;BME280;45330;51.634;5.562;2024-01-06T11:17:54;101107.75;;;3.01;100.00
59513;BME280;45330;51.634;5.562;2024-01-06T11:20:27;101100.00;;;3.00;100.00
59513;BME280;45330;51.634;5.562;2024-01-06T11:22:53;101068.88;;;2.90;100.00
59513;BME280;45330;51.634;5.562;2024-01-06T11:25:20;101101.91;;;3.07;100.00
59513;BME280;45330;51.634;5.562;2024-01-06T11:27:47;101088.91;;;3.02;100.00
59513;BME280;45330;51.634;5.562;2024-01-06T11:30:39;101102.03;;;3.12;100.00
59513;BME280;45330;51.634;5.562;2024-01-06T11:33:05;101101.88;;;3.05;100.00
59513;BME280;45330;51.634;5.562;2024-01-06T11:35:31;101102.66;;;3.03;100.00
59513;BME280;45330;51.634;5.562;2024-01-06T11:37:59;101074.84;;;2.89;100.00
59513;BME280;45330;51.634;5.562;2024-01-06T11:40:31;101111.13;;;3.00;100.00
59513;BME280;45330;51.634;5.562;2024-01-06T11:45:30;101091.09;;;2.88;100.00
59513;BME280;45330;51.634;5.562;2024-01-06T11:48:01;101116.38;;;3.03;100.00
59513;BME280;45330;51.634;5.562;2024-01-06T11:50:28;101095.34;;;2.88;100.00
59513;BME280;45330;51.634;5.562;2024-01-06T11:52:55;101090.84;;;2.81;100.00
59513;BME280;45330;51.634;5.562;2024-01-06T11:55:21;101111.75;;;2.91;100.00
59513;BME280;45330;51.634;5.562;2024-01-06T11:57:47;101109.03;;;2.87;100.00
59513;BME280;45330;51.634;5.562;2024-01-06T12:00:14;101113.44;;;2.91;100.00
59513;BME280;45330;51.634;5.562;2024-01-06T12:02:40;101114.13;;;2.85;100.00
59513;BME280;45330;51.634;5.562;2024-01-06T12:05:12;101113.94;;;2.79;100.00
59513;BME280;45330;51.634;5.562;2024-01-06T12:07:38;101120.09;;;2.84;100.00
59513;BME280;45330;51.634;5.562;2024-01-06T12:10:04;101100.72;;;2.67;100.00
59513;BME280;45330;51.634;5.562;2024-01-06T12:12:29;101110.34;;;2.74;100.00
59513;BME280;45330;51.634;5.562;2024-01-06T12:14:55;101117.34;;;2.78;100.00
59513;BME280;45330;51.634;5.562;2024-01-06T12:17:21;101118.06;;;2.74;100.00
59513;BME280;45330;51.634;5.562;2024-01-06T12:19:47;101112.16;;;2.77;100.00
59513;BME280;45330;51.634;5.562;2024-01-06T12:22:14;101093.84;;;2.66;100.00
59513;BME280;45330;51.634;5.562;2024-01-06T12:24:40;101119.88;;;2.77;100.00
59513;BME280;45330;51.634;5.562;2024-01-06T12:27:07;101098.97;;;2.66;100.00
59513;BME280;45330;51.634;5.562;2024-01-06T12:29:40;101122.31;;;2.72;100.00
59513;BME280;45330;51.634;5.562;2024-01-06T12:32:09;101112.50;;;2.60;100.00
59513;BME280;45330;51.634;5.562;2024-01-06T12:34:35;101101.38;;;2.60;100.00
59513;BME280;45330;51.634;5.562;2024-01-06T12:37:01;101091.69;;;2.51;100.00
59513;BME280;45330;51.634;5.562;2024-01-06T12:39:30;101112.66;;;2.65;100.00
59513;BME280;45330;51.634;5.562;2024-01-06T12:41:56;101098.72;;;2.56;100.00
59513;BME280;45330;51.634;5.562;2024-01-06T12:44:21;101106.59;;;2.63;100.00
59513;BME280;45330;51.634;5.562;2024-01-06T12:46:48;101083.28;;;2.56;100.00